createdAt,value
2022-12-15T03:59:48.301Z,18.36
2022-12-15T04:00:48.247Z,18.34
2022-12-15T04:01:48.420Z,18.39
2022-12-15T04:02:50.070Z,18.29
2022-12-15T04:03:48.275Z,18.36
2022-12-15T04:04:48.210Z,18.36
2022-12-15T04:05:48.193Z,18.35
2022-12-15T04:06:48.188Z,18.39
2022-12-15T04:07:48.202Z,18.41
2022-12-15T04:08:49.815Z,18.35
2022-12-15T04:09:48.164Z,18.35
2022-12-15T04:10:48.168Z,18.32
2022-12-15T04:11:48.139Z,18.39
2022-12-15T04:12:48.154Z,18.44
2022-12-15T04:13:48.129Z,18.45
2022-12-15T04:14:48.126Z,18.45
2022-12-15T04:15:48.138Z,18.47
2022-12-15T04:16:48.187Z,18.50
2022-12-15T04:17:48.110Z,18.53
2022-12-15T04:18:48.102Z,18.56
2022-12-15T04:19:48.089Z,18.56
2022-12-15T04:20:50.397Z,18.57
2022-12-15T04:21:48.080Z,18.61
2022-12-15T04:22:48.092Z,18.57
2022-12-15T04:23:48.075Z,18.65
2022-12-15T04:24:48.076Z,18.61
2022-12-15T04:25:48.076Z,18.66
2022-12-15T04:26:48.058Z,18.68
2022-12-15T04:27:48.041Z,18.69
2022-12-15T04:28:48.070Z,18.71
2022-12-15T04:29:48.065Z,18.71
2022-12-15T04:30:48.081Z,18.74
2022-12-15T04:31:48.041Z,18.72
2022-12-15T04:32:49.666Z,18.79
2022-12-15T04:33:48.013Z,18.81
2022-12-15T04:34:48.012Z,18.82
2022-12-15T04:35:47.994Z,18.74
2022-12-15T04:36:48.005Z,18.78
2022-12-15T04:37:48.004Z,18.75
2022-12-15T04:38:50.202Z,18.87
2022-12-15T04:39:47.980Z,18.81
2022-12-15T04:40:47.974Z,18.86
2022-12-15T04:41:47.972Z,18.87
2022-12-15T04:42:47.981Z,18.93
2022-12-15T04:43:47.964Z,18.93
2022-12-15T04:44:50.310Z,18.94
2022-12-15T04:45:47.990Z,18.90
2022-12-15T04:46:47.938Z,18.90
2022-12-15T04:47:47.995Z,18.89
2022-12-15T04:48:47.951Z,18.96
2022-12-15T04:49:47.920Z,18.97
2022-12-15T04:50:47.930Z,19.00
2022-12-15T04:51:47.931Z,19.00
2022-12-15T04:52:47.939Z,18.93
2022-12-15T04:53:47.897Z,19.02
2022-12-15T04:54:47.888Z,18.99
2022-12-15T04:55:47.907Z,19.05
2022-12-15T04:56:47.884Z,19.00
2022-12-15T04:57:47.881Z,19.02
2022-12-15T04:58:47.906Z,19.00
2022-12-15T04:59:47.863Z,19.10
2022-12-15T05:00:47.860Z,19.09
2022-12-15T05:01:47.977Z,19.02
2022-12-15T05:02:47.907Z,19.15
2022-12-15T05:03:47.856Z,19.12
2022-12-15T05:04:47.959Z,19.06
2022-12-15T05:05:47.844Z,19.09
2022-12-15T05:06:47.827Z,19.12
2022-12-15T05:07:47.818Z,19.12
2022-12-15T05:08:50.193Z,19.07
2022-12-15T05:09:47.832Z,19.10
2022-12-15T05:10:47.818Z,19.06
2022-12-15T05:11:47.824Z,19.09
2022-12-15T05:12:47.843Z,19.13
2022-12-15T05:13:47.785Z,19.06
2022-12-15T05:14:49.511Z,19.10
2022-12-15T05:15:47.853Z,19.10
2022-12-15T05:16:47.845Z,19.12
2022-12-15T05:17:47.777Z,19.15
2022-12-15T05:18:47.771Z,19.13
2022-12-15T05:19:47.773Z,19.13
2022-12-15T05:20:50.218Z,19.15
2022-12-15T05:21:47.771Z,19.20
2022-12-15T05:22:47.739Z,19.13
2022-12-15T05:23:47.727Z,19.17
2022-12-15T05:24:47.730Z,19.19
2022-12-15T05:25:47.808Z,19.15
2022-12-15T05:26:52.346Z,19.15
2022-12-15T05:27:47.713Z,19.20
2022-12-15T05:28:47.706Z,19.10
2022-12-15T05:29:47.730Z,19.15
2022-12-15T05:30:47.827Z,19.09
2022-12-15T05:31:47.691Z,19.15
2022-12-15T05:32:47.678Z,19.17
2022-12-15T05:33:47.702Z,19.12
2022-12-15T05:34:47.701Z,19.19
2022-12-15T05:35:47.686Z,19.15
2022-12-15T05:36:47.675Z,19.23
2022-12-15T05:37:47.654Z,19.19
2022-12-15T05:38:47.648Z,19.16
2022-12-15T05:39:47.665Z,19.25
2022-12-15T05:40:47.698Z,19.19
2022-12-15T05:41:47.632Z,19.15
2022-12-15T05:42:49.927Z,19.17
2022-12-15T05:43:47.632Z,19.20
2022-12-15T05:44:47.638Z,19.17
2022-12-15T05:45:47.611Z,19.25
2022-12-15T05:46:47.682Z,19.17
2022-12-15T05:47:47.604Z,19.19
2022-12-15T05:48:47.613Z,19.20
2022-12-15T05:49:47.600Z,19.20
2022-12-15T05:50:47.594Z,19.17
2022-12-15T05:51:47.612Z,19.19
2022-12-15T05:52:49.517Z,19.24
2022-12-15T05:53:47.581Z,19.12
2022-12-15T05:54:47.568Z,19.20
2022-12-15T05:55:47.564Z,19.13
2022-12-15T05:56:50.283Z,19.13
2022-12-15T05:57:47.549Z,19.24
2022-12-15T05:58:47.541Z,19.24
2022-12-15T05:59:47.561Z,19.24
2022-12-15T06:00:47.559Z,19.23
2022-12-15T06:01:47.613Z,19.17
2022-12-15T06:02:48.378Z,19.10
2022-12-15T06:03:47.518Z,19.20
2022-12-15T06:04:47.636Z,19.20
2022-12-15T06:05:51.674Z,19.23
2022-12-15T06:06:47.498Z,19.19
2022-12-15T06:07:47.539Z,19.07
2022-12-15T06:08:47.494Z,19.17
2022-12-15T06:09:47.484Z,19.24
2022-12-15T06:10:47.496Z,19.23
2022-12-15T06:11:47.517Z,19.12
2022-12-15T06:12:47.499Z,19.07
2022-12-15T06:13:47.473Z,19.16
2022-12-15T06:14:47.460Z,19.23
2022-12-15T06:15:47.527Z,19.24
2022-12-15T06:16:50.708Z,19.13
2022-12-15T06:17:49.660Z,19.09
2022-12-15T06:18:50.054Z,19.23
2022-12-15T06:19:47.438Z,19.23
2022-12-15T06:20:47.428Z,19.19
2022-12-15T06:21:47.416Z,19.17
2022-12-15T06:22:50.084Z,19.09
2022-12-15T06:23:47.416Z,19.15
2022-12-15T06:24:47.432Z,19.17
2022-12-15T06:25:47.412Z,19.12
2022-12-15T06:26:49.742Z,19.24
2022-12-15T06:27:47.405Z,19.25
2022-12-15T06:28:47.392Z,19.19
2022-12-15T06:29:47.391Z,19.13
2022-12-15T06:30:47.373Z,19.13
2022-12-15T06:31:47.405Z,19.25
2022-12-15T06:32:49.991Z,19.25
2022-12-15T06:33:47.463Z,19.13
2022-12-15T06:34:47.348Z,19.13
2022-12-15T06:35:47.373Z,19.25
2022-12-15T06:36:47.362Z,19.19
2022-12-15T06:37:47.342Z,19.20
2022-12-15T06:38:50.093Z,19.27
2022-12-15T06:39:47.353Z,19.17
2022-12-15T06:40:47.329Z,19.24
2022-12-15T06:41:47.371Z,19.24
2022-12-15T06:42:47.308Z,19.16
2022-12-15T06:43:47.303Z,19.23
2022-12-15T06:44:47.299Z,19.19
2022-12-15T06:45:47.347Z,19.23
2022-12-15T06:46:47.362Z,19.17
2022-12-15T06:47:47.301Z,19.23
2022-12-15T06:48:47.295Z,19.23
2022-12-15T06:49:47.301Z,19.27
2022-12-15T06:50:47.310Z,19.13
2022-12-15T06:51:47.281Z,19.20
2022-12-15T06:52:47.448Z,19.23
2022-12-15T06:53:47.410Z,19.23
2022-12-15T06:54:47.465Z,19.27
2022-12-15T06:55:47.439Z,19.09
2022-12-15T06:56:50.059Z,19.25
2022-12-15T06:57:47.269Z,19.23
2022-12-15T06:58:47.915Z,19.19
2022-12-15T06:59:47.264Z,19.13
2022-12-15T07:00:49.974Z,19.24
2022-12-15T07:01:47.436Z,19.09
2022-12-15T07:02:48.284Z,19.16
2022-12-15T07:03:47.453Z,19.23
2022-12-15T07:04:47.248Z,19.27
2022-12-15T07:05:47.184Z,19.09
2022-12-15T07:06:47.173Z,19.19
2022-12-15T07:07:47.169Z,19.28
2022-12-15T07:08:47.166Z,19.25
2022-12-15T07:09:47.173Z,19.23
2022-12-15T07:10:47.166Z,19.13
2022-12-15T07:11:47.216Z,19.09
2022-12-15T07:12:47.161Z,19.25
2022-12-15T07:13:47.135Z,19.27
2022-12-15T07:14:53.070Z,19.23
2022-12-15T07:15:47.189Z,19.25
2022-12-15T07:16:47.172Z,19.13
2022-12-15T07:17:47.138Z,19.20
2022-12-15T07:18:47.987Z,19.20
2022-12-15T07:19:47.099Z,19.25
2022-12-15T07:20:47.408Z,19.23
2022-12-15T07:21:47.103Z,19.24
2022-12-15T07:22:47.098Z,19.19
2022-12-15T07:23:56.318Z,19.20
2022-12-15T07:24:47.083Z,19.23
2022-12-15T07:25:47.089Z,19.20
2022-12-15T07:26:48.963Z,19.13
2022-12-15T07:27:47.115Z,19.27
2022-12-15T07:28:47.063Z,19.24
2022-12-15T07:29:49.908Z,19.28
2022-12-15T07:30:47.058Z,19.20
2022-12-15T07:31:47.242Z,19.27
2022-12-15T07:32:50.033Z,19.23
2022-12-15T07:33:47.079Z,19.20
2022-12-15T07:34:47.020Z,19.27
2022-12-15T07:35:47.011Z,19.30
2022-12-15T07:36:51.824Z,19.20
2022-12-15T07:37:47.020Z,19.27
2022-12-15T07:38:50.513Z,19.24
2022-12-15T07:39:47.004Z,19.27
2022-12-15T07:40:46.989Z,19.20
2022-12-15T07:41:46.980Z,19.24
2022-12-15T07:42:46.983Z,19.34
2022-12-15T07:43:47.213Z,19.25
2022-12-15T07:44:46.995Z,19.31
2022-12-15T07:45:51.465Z,19.31
2022-12-15T07:46:47.465Z,19.31
2022-12-15T07:47:47.025Z,19.25
2022-12-15T07:48:50.666Z,19.31
2022-12-15T07:49:46.935Z,19.27
2022-12-15T07:50:46.938Z,19.37
2022-12-15T07:51:47.063Z,19.32
2022-12-15T07:52:46.959Z,19.34
2022-12-15T07:53:47.491Z,19.34
2022-12-15T07:54:46.931Z,19.31
2022-12-15T07:56:06.015Z,19.30
2022-12-15T07:56:50.318Z,19.25
2022-12-15T07:57:46.999Z,19.28
2022-12-15T07:58:46.891Z,19.34
2022-12-15T07:59:46.988Z,19.30
2022-12-15T08:00:49.114Z,19.31
2022-12-15T08:01:47.083Z,19.32
2022-12-15T08:02:47.132Z,19.25
2022-12-15T08:03:46.912Z,19.34
2022-12-15T08:04:46.867Z,19.40
2022-12-15T08:05:46.921Z,19.28
2022-12-15T08:06:46.847Z,19.45
2022-12-15T08:07:46.876Z,19.35
2022-12-15T08:08:50.398Z,19.37
2022-12-15T08:09:47.085Z,19.34
2022-12-15T08:10:46.872Z,19.35
2022-12-15T08:11:46.831Z,19.35
2022-12-15T08:12:46.826Z,19.43
2022-12-15T08:14:04.088Z,19.35
2022-12-15T08:14:49.929Z,19.38
2022-12-15T08:15:46.925Z,19.43
2022-12-15T08:16:46.934Z,19.37
2022-12-15T08:17:46.809Z,19.34
2022-12-15T08:18:46.812Z,19.37
2022-12-15T08:19:47.393Z,19.40
2022-12-15T08:20:46.797Z,19.34
2022-12-15T08:21:46.758Z,19.38
2022-12-15T08:22:46.762Z,19.38
2022-12-15T08:23:46.755Z,19.38
2022-12-15T08:24:46.793Z,19.42
2022-12-15T08:25:46.812Z,19.38
2022-12-15T08:26:50.305Z,19.37
2022-12-15T08:27:46.733Z,19.45
2022-12-15T08:28:47.666Z,19.47
2022-12-15T08:29:51.785Z,19.47
2022-12-15T08:30:46.944Z,19.45
2022-12-15T08:31:46.824Z,19.35
2022-12-15T08:32:51.724Z,19.40
2022-12-15T08:33:49.251Z,19.57
2022-12-15T08:34:47.141Z,19.55
2022-12-15T08:35:56.795Z,19.53
2022-12-15T08:36:46.733Z,19.47
2022-12-15T08:37:49.455Z,19.46
2022-12-15T08:38:51.810Z,19.50
2022-12-15T08:39:46.980Z,19.50
2022-12-15T08:41:10.528Z,19.56
2022-12-15T08:42:53.490Z,19.57
2022-12-15T08:43:49.022Z,19.65
2022-12-15T08:44:47.200Z,19.65
2022-12-15T08:45:49.614Z,19.57
2022-12-15T08:46:46.693Z,19.67
2022-12-15T08:47:46.705Z,19.68
2022-12-15T08:48:46.766Z,19.70
2022-12-15T08:49:46.645Z,19.67
2022-12-15T08:50:46.621Z,19.65
2022-12-15T08:51:50.206Z,19.67
2022-12-15T08:53:13.850Z,19.68
2022-12-15T08:53:47.110Z,19.72
2022-12-15T08:54:46.685Z,19.74
2022-12-15T08:55:47.561Z,19.67
2022-12-15T08:56:46.581Z,19.75
2022-12-15T08:57:50.029Z,19.80
2022-12-15T08:58:46.806Z,19.74
2022-12-15T08:59:46.652Z,19.78
2022-12-15T09:00:46.707Z,19.80
2022-12-15T09:01:46.714Z,19.75
2022-12-15T09:02:46.672Z,19.75
2022-12-15T09:03:47.003Z,19.82
2022-12-15T09:04:46.616Z,19.83
2022-12-15T09:05:46.582Z,19.74
2022-12-15T09:06:50.340Z,19.83
2022-12-15T09:07:46.546Z,19.85
2022-12-15T09:08:46.791Z,19.90
2022-12-15T09:09:46.529Z,19.85
2022-12-15T09:10:46.517Z,19.89
2022-12-15T09:11:46.551Z,19.97
2022-12-15T09:12:46.539Z,19.93
2022-12-15T09:13:46.580Z,19.93
2022-12-15T09:14:46.552Z,19.89
2022-12-15T09:16:08.836Z,19.95
2022-12-15T09:16:46.546Z,20.00
2022-12-15T09:17:46.635Z,20.07
2022-12-15T09:18:46.490Z,20.04
2022-12-15T09:19:46.541Z,20.05
2022-12-15T09:20:47.426Z,20.04
2022-12-15T09:21:46.537Z,20.18
2022-12-15T09:22:46.461Z,20.18
2022-12-15T09:23:46.523Z,20.16
2022-12-15T09:24:46.507Z,20.16
2022-12-15T09:25:46.498Z,20.16
2022-12-15T09:26:46.485Z,20.16
2022-12-15T09:27:46.453Z,20.18
2022-12-15T09:28:50.844Z,20.15
2022-12-15T09:29:46.443Z,20.29
2022-12-15T09:30:46.646Z,20.34
2022-12-15T09:31:46.439Z,20.29
2022-12-15T09:32:46.435Z,20.27
2022-12-15T09:33:47.186Z,20.34
2022-12-15T09:34:46.443Z,20.42
2022-12-15T09:35:46.541Z,20.41
2022-12-15T09:36:46.410Z,20.44
2022-12-15T09:37:51.612Z,20.34
2022-12-15T09:38:46.431Z,20.44
2022-12-15T09:39:47.090Z,20.54
2022-12-15T09:40:46.406Z,20.51
2022-12-15T09:41:46.509Z,20.61
2022-12-15T09:42:54.851Z,20.63
2022-12-15T09:43:47.503Z,20.57
2022-12-15T09:44:46.373Z,20.63
2022-12-15T09:45:46.506Z,20.68
2022-12-15T09:46:50.377Z,20.68
2022-12-15T09:47:46.392Z,20.68
2022-12-15T09:48:46.394Z,20.74
2022-12-15T09:49:46.492Z,20.79
2022-12-15T09:50:46.349Z,20.85
2022-12-15T09:51:46.363Z,20.78
2022-12-15T09:52:46.339Z,20.86
2022-12-15T09:53:55.022Z,20.91
2022-12-15T09:54:46.671Z,20.90
2022-12-15T09:55:46.390Z,20.98
2022-12-15T09:56:49.943Z,21.00
2022-12-15T09:57:46.322Z,21.01
2022-12-15T09:58:46.318Z,21.01
2022-12-15T09:59:46.344Z,21.12
2022-12-15T10:00:52.243Z,21.03
2022-12-15T10:01:46.401Z,21.09
2022-12-15T10:02:46.486Z,21.12
2022-12-15T10:13:54.930Z,21.36
2022-12-15T10:14:54.848Z,21.36
2022-12-15T10:15:54.878Z,21.41
2022-12-15T10:16:55.737Z,21.41
2022-12-15T10:17:54.878Z,21.40
2022-12-15T10:18:59.429Z,21.46
2022-12-15T10:19:54.807Z,21.46
2022-12-15T10:20:54.865Z,21.55
2022-12-15T10:21:54.845Z,21.48
2022-12-15T10:22:54.861Z,21.55
2022-12-15T10:23:54.872Z,21.61
2022-12-15T10:25:11.278Z,21.58
2022-12-15T10:25:54.789Z,21.64
2022-12-15T10:26:54.844Z,21.62
2022-12-15T10:27:54.964Z,21.66
2022-12-15T10:28:54.852Z,21.66
2022-12-15T10:29:54.921Z,21.67
2022-12-15T10:30:54.831Z,21.71
2022-12-15T10:31:57.894Z,21.76
2022-12-15T10:32:54.803Z,21.76
2022-12-15T10:33:56.430Z,21.71
2022-12-15T10:34:54.834Z,21.77
2022-12-15T10:35:54.820Z,21.78
2022-12-15T10:36:54.877Z,21.77
2022-12-15T10:37:54.741Z,21.80
2022-12-15T10:38:54.864Z,21.78
2022-12-15T10:39:54.728Z,21.78
2022-12-15T10:40:54.727Z,21.85
2022-12-15T10:41:54.951Z,21.82
2022-12-15T10:42:54.762Z,21.92
2022-12-15T10:43:54.787Z,21.89
2022-12-15T10:44:54.763Z,21.85
2022-12-15T10:45:58.575Z,21.90
2022-12-15T10:46:56.436Z,21.96
2022-12-15T10:47:55.341Z,21.94
2022-12-15T10:48:55.204Z,22.02
2022-12-15T10:49:54.722Z,22.00
2022-12-15T10:50:54.703Z,22.02
2022-12-15T10:51:54.691Z,22.11
2022-12-15T10:52:54.768Z,22.08
2022-12-15T10:53:54.724Z,22.24
2022-12-15T10:54:54.719Z,22.09
2022-12-15T10:55:54.739Z,22.20
2022-12-15T10:57:01.420Z,22.20
2022-12-15T10:57:54.782Z,22.27
2022-12-15T10:58:54.702Z,22.20
2022-12-15T10:59:54.706Z,22.30
2022-12-15T11:00:54.843Z,22.36
2022-12-15T11:01:54.899Z,22.36
2022-12-15T11:02:55.048Z,22.39
2022-12-15T11:04:01.521Z,22.39
2022-12-15T11:04:54.695Z,22.33
2022-12-15T11:05:54.717Z,22.38
2022-12-15T11:06:54.657Z,22.42
2022-12-15T11:07:55.340Z,22.36
2022-12-15T11:08:54.686Z,22.39
2022-12-15T11:09:54.649Z,22.38
2022-12-15T11:10:54.759Z,22.38
2022-12-15T11:11:54.685Z,22.38
2022-12-15T11:13:01.443Z,22.34
2022-12-15T11:13:54.652Z,22.39
2022-12-15T11:14:54.663Z,22.42
2022-12-15T11:15:55.159Z,22.42
2022-12-15T11:16:54.723Z,22.38
2022-12-15T11:17:54.640Z,22.42
2022-12-15T11:18:54.652Z,22.41
2022-12-15T11:20:01.633Z,22.49
2022-12-15T11:20:54.653Z,22.44
2022-12-15T11:21:54.632Z,22.55
2022-12-15T11:22:54.617Z,22.60
2022-12-15T11:23:54.616Z,22.59
2022-12-15T11:24:54.639Z,22.55
2022-12-15T11:25:54.613Z,22.57
2022-12-15T11:26:54.636Z,22.60
2022-12-15T11:27:54.628Z,22.61
2022-12-15T11:28:54.606Z,22.57
2022-12-15T11:29:54.615Z,22.75
2022-12-15T11:30:54.825Z,22.66
2022-12-15T11:31:54.782Z,22.70
2022-12-15T11:32:55.111Z,22.75
2022-12-15T11:33:54.882Z,22.76
2022-12-15T11:34:54.692Z,22.78
2022-12-15T11:35:54.682Z,22.78
2022-12-15T11:36:54.756Z,22.71
2022-12-15T11:37:54.662Z,22.75
2022-12-15T11:38:54.724Z,22.79
2022-12-15T11:39:54.588Z,22.73
2022-12-15T11:40:54.913Z,22.67
2022-12-15T11:41:54.572Z,22.69
2022-12-15T11:42:54.840Z,22.75
2022-12-15T11:43:54.581Z,22.75
2022-12-15T11:44:54.702Z,22.81
2022-12-15T11:45:57.886Z,22.84
2022-12-15T11:46:54.623Z,22.85
2022-12-15T11:47:54.582Z,22.82
2022-12-15T11:48:54.554Z,22.88
2022-12-15T11:49:55.041Z,22.94
2022-12-15T11:50:55.418Z,22.94
2022-12-15T11:51:54.596Z,22.99
2022-12-15T11:52:54.543Z,23.00
2022-12-15T11:53:54.551Z,23.06
2022-12-15T11:54:54.604Z,23.04
2022-12-15T11:55:54.582Z,23.14
2022-12-15T11:56:55.372Z,23.21
2022-12-15T11:57:54.555Z,23.26
2022-12-15T11:58:54.560Z,23.41
2022-12-15T11:59:54.537Z,23.37
2022-12-15T12:00:54.540Z,23.45
2022-12-15T12:02:02.422Z,23.57
2022-12-15T12:02:54.593Z,23.56
2022-12-15T12:03:54.528Z,23.66
2022-12-15T12:04:54.528Z,23.75
2022-12-15T12:05:54.602Z,23.81
2022-12-15T12:06:54.527Z,23.84
2022-12-15T12:07:54.549Z,23.78
2022-12-15T12:08:54.937Z,23.77
2022-12-15T12:09:54.577Z,23.93
2022-12-15T12:10:54.757Z,23.96
2022-12-15T12:11:54.558Z,23.87
2022-12-15T12:12:54.536Z,23.99
2022-12-15T12:14:26.609Z,23.89
2022-12-15T12:15:16.856Z,24.08
2022-12-15T12:15:57.586Z,24.12
2022-12-15T12:17:22.471Z,24.12
2022-12-15T12:18:54.627Z,24.33
2022-12-15T12:19:54.577Z,24.33
2022-12-15T12:20:54.659Z,24.42
2022-12-15T12:21:54.537Z,24.51
2022-12-15T12:23:02.520Z,24.48
2022-12-15T12:23:57.415Z,24.55
2022-12-15T12:24:54.577Z,24.63
2022-12-15T12:26:03.443Z,24.70
2022-12-15T12:26:55.306Z,24.80
2022-12-15T12:27:54.625Z,24.77
2022-12-15T12:28:54.572Z,24.83
2022-12-15T12:29:54.856Z,24.94
2022-12-15T12:30:54.500Z,25.04
2022-12-15T12:31:59.093Z,25.04
2022-12-15T12:32:54.944Z,25.15
2022-12-15T12:33:54.552Z,25.24
2022-12-15T12:34:54.493Z,25.24
2022-12-15T12:35:54.503Z,25.27
2022-12-15T12:37:07.418Z,25.26
2022-12-15T12:38:54.571Z,25.39
2022-12-15T12:39:54.861Z,25.38
2022-12-15T12:40:55.001Z,25.38
2022-12-15T12:41:54.619Z,25.30
2022-12-15T12:42:54.921Z,25.26
2022-12-15T12:43:59.952Z,25.19
2022-12-15T12:44:54.571Z,25.17
2022-12-15T12:45:54.498Z,25.23
2022-12-15T12:46:55.547Z,25.30
2022-12-15T12:47:56.208Z,25.33
2022-12-15T12:48:56.811Z,25.34
2022-12-15T12:49:54.681Z,25.32
2022-12-15T12:50:56.501Z,25.33
2022-12-15T12:51:54.525Z,25.44
2022-12-15T12:52:55.912Z,25.37
2022-12-15T12:53:54.853Z,25.51
2022-12-15T12:54:54.497Z,25.51
2022-12-15T12:55:59.277Z,25.45
2022-12-15T12:56:54.546Z,25.44
2022-12-15T12:57:54.579Z,25.33
2022-12-15T12:58:54.772Z,25.37
2022-12-15T12:59:56.552Z,25.24
2022-12-15T13:00:56.924Z,25.19
2022-12-15T13:01:54.783Z,25.19
2022-12-15T13:02:54.666Z,25.04
2022-12-15T13:03:55.602Z,25.02
2022-12-15T13:04:54.569Z,25.02
2022-12-15T13:05:54.650Z,25.09
2022-12-15T13:06:58.053Z,25.04
2022-12-15T13:07:54.971Z,25.00
2022-12-15T13:08:55.567Z,25.04
2022-12-15T13:09:54.541Z,25.02
2022-12-15T13:10:54.931Z,25.00
2022-12-15T13:11:58.075Z,25.01
2022-12-15T13:12:54.885Z,25.07
2022-12-15T13:13:54.568Z,25.07
2022-12-15T13:14:54.653Z,25.02
2022-12-15T13:15:54.602Z,25.07
2022-12-15T13:17:54.677Z,25.00
2022-12-15T13:19:02.485Z,25.04
2022-12-15T13:19:54.514Z,25.02
2022-12-15T13:20:54.500Z,25.02
2022-12-15T13:21:54.538Z,25.04
2022-12-15T13:22:54.495Z,25.04
2022-12-15T13:23:54.617Z,25.04
2022-12-15T13:24:54.502Z,25.07
2022-12-15T13:25:57.229Z,25.12
2022-12-15T13:26:54.499Z,25.04
2022-12-15T13:27:54.459Z,25.02
2022-12-15T13:28:54.471Z,25.14
2022-12-15T13:29:54.494Z,25.17
2022-12-15T13:30:54.518Z,25.14
2022-12-15T13:31:54.571Z,25.14
2022-12-15T13:32:54.587Z,25.09
2022-12-15T13:33:54.500Z,25.08
2022-12-15T13:34:54.807Z,25.02
2022-12-15T13:35:54.471Z,25.09
2022-12-15T13:36:56.508Z,24.93
2022-12-15T13:37:54.458Z,24.87
2022-12-15T13:38:54.452Z,24.83
2022-12-15T13:39:54.489Z,24.71
2022-12-15T13:40:54.489Z,24.58
2022-12-15T13:42:58.156Z,24.40
2022-12-15T13:43:54.483Z,24.44
2022-12-15T13:44:54.499Z,24.29
2022-12-15T13:45:54.600Z,24.27
2022-12-15T13:46:54.674Z,24.12
2022-12-15T13:47:54.511Z,24.17
2022-12-15T13:48:54.466Z,24.08
2022-12-15T13:50:01.696Z,24.04
2022-12-15T13:50:54.499Z,24.00
2022-12-15T13:51:54.746Z,23.93
2022-12-15T13:53:23.875Z,23.90
2022-12-15T13:53:54.460Z,23.77
2022-12-15T13:54:54.456Z,23.75
2022-12-15T13:55:54.526Z,23.70
2022-12-15T13:56:54.454Z,23.59
2022-12-15T13:57:54.503Z,23.55
2022-12-15T13:58:54.479Z,23.42
2022-12-15T13:59:54.436Z,23.45
2022-12-15T14:00:55.046Z,23.35
2022-12-15T14:01:54.598Z,23.29
2022-12-15T14:02:57.175Z,23.19
2022-12-15T14:03:54.723Z,23.19
2022-12-15T14:04:54.520Z,23.16
2022-12-15T14:05:54.433Z,23.15
2022-12-15T14:06:54.471Z,23.06
2022-12-15T14:07:55.091Z,23.10
2022-12-15T14:08:54.394Z,22.99
2022-12-15T14:09:54.424Z,22.91
2022-12-15T14:10:54.516Z,22.99
2022-12-15T14:11:54.599Z,22.88
2022-12-15T14:12:54.479Z,22.78
2022-12-15T14:13:54.674Z,22.78
2022-12-15T14:14:54.466Z,22.82
2022-12-15T14:15:54.410Z,22.69
2022-12-15T14:16:54.505Z,22.66
2022-12-15T14:17:54.457Z,22.61
2022-12-15T14:18:54.392Z,22.52
2022-12-15T14:19:54.394Z,22.45
2022-12-15T14:20:54.584Z,22.42
2022-12-15T14:21:54.359Z,22.46
2022-12-15T14:22:54.372Z,22.36
2022-12-15T14:24:54.629Z,22.31
2022-12-15T14:25:54.366Z,22.24
2022-12-15T14:26:54.395Z,22.27
2022-12-15T14:27:54.342Z,22.24
2022-12-15T14:28:54.416Z,22.26
2022-12-15T14:29:59.206Z,22.18
2022-12-15T14:30:54.338Z,22.09
2022-12-15T14:31:54.376Z,22.08
2022-12-15T14:32:54.484Z,22.04
2022-12-15T14:33:54.330Z,22.00
2022-12-15T14:34:54.333Z,21.90
2022-12-15T14:35:54.318Z,21.90
2022-12-15T14:36:54.349Z,21.90
2022-12-15T14:37:55.027Z,21.83
2022-12-15T14:38:54.325Z,21.83
2022-12-15T14:39:54.340Z,21.92
2022-12-15T14:40:54.305Z,21.76
2022-12-15T14:41:54.295Z,21.76
2022-12-15T14:42:54.320Z,21.73
2022-12-15T14:44:31.247Z,21.68
2022-12-15T14:44:57.783Z,21.64
2022-12-15T14:45:55.124Z,21.66
2022-12-15T14:46:55.560Z,21.66
2022-12-15T14:48:13.670Z,21.52
2022-12-15T14:48:56.823Z,21.53
2022-12-15T14:49:54.299Z,21.53
2022-12-15T14:50:54.722Z,21.49
2022-12-15T14:51:54.745Z,21.46
2022-12-15T14:52:54.281Z,21.45
2022-12-15T14:53:54.270Z,21.38
2022-12-15T14:54:57.282Z,21.40
2022-12-15T14:55:54.252Z,21.34
2022-12-15T14:56:54.240Z,21.28
2022-12-15T14:57:54.236Z,21.28
2022-12-15T14:58:54.260Z,21.27
2022-12-15T14:59:54.227Z,21.22
2022-12-15T15:00:54.238Z,21.23
2022-12-15T15:01:58.667Z,21.22
2022-12-15T15:02:54.293Z,21.22
2022-12-15T15:03:07.202Z,25.34
2022-12-15T15:03:54.217Z,21.18
2022-12-15T15:04:54.207Z,21.09
2022-12-15T15:05:54.251Z,21.11
2022-12-15T15:06:54.236Z,21.09
2022-12-15T15:07:54.237Z,21.09
2022-12-15T15:08:54.212Z,21.08
2022-12-15T15:09:54.188Z,21.06
2022-12-15T15:10:54.201Z,20.98
2022-12-15T15:11:54.228Z,21.00
2022-12-15T15:12:54.185Z,21.03
2022-12-15T15:13:54.186Z,21.03
2022-12-15T15:14:54.168Z,20.97
2022-12-15T15:15:54.160Z,21.01
2022-12-15T15:16:54.279Z,20.86
2022-12-15T15:17:54.181Z,20.91
2022-12-15T15:18:54.151Z,20.94
2022-12-15T15:19:54.158Z,20.90
2022-12-15T15:20:54.150Z,20.88
2022-12-15T15:21:54.155Z,20.88
2022-12-15T15:22:54.123Z,20.79
2022-12-15T15:23:54.137Z,20.81
2022-12-15T15:24:54.123Z,20.86
2022-12-15T15:25:54.124Z,20.81
2022-12-15T15:26:54.184Z,20.78
2022-12-15T15:27:54.111Z,20.76
2022-12-15T15:28:54.175Z,20.74
2022-12-15T15:29:54.101Z,20.75
2022-12-15T15:30:56.151Z,20.74
2022-12-15T15:31:54.102Z,20.68
2022-12-15T15:32:54.117Z,20.66
2022-12-15T15:34:54.077Z,20.66
2022-12-15T15:35:54.081Z,20.58
2022-12-15T15:36:54.080Z,20.60
2022-12-15T15:37:54.142Z,20.58
2022-12-15T15:38:54.065Z,20.60
2022-12-15T15:39:54.080Z,20.57
2022-12-15T15:40:54.050Z,20.56
2022-12-15T15:41:54.052Z,20.56
2022-12-15T15:42:54.055Z,20.58
2022-12-15T15:43:54.045Z,20.51
2022-12-15T15:44:54.036Z,20.48
2022-12-15T15:45:54.100Z,20.56
2022-12-15T15:46:54.024Z,20.51
2022-12-15T15:47:56.279Z,20.46
2022-12-15T15:48:54.034Z,20.41
2022-12-15T15:49:54.027Z,20.46
2022-12-15T15:50:54.025Z,20.41
2022-12-15T15:51:54.018Z,20.44
2022-12-15T15:52:54.004Z,20.35
2022-12-15T15:53:53.994Z,20.46
2022-12-15T15:54:53.988Z,20.48
2022-12-15T15:55:54.017Z,20.46
2022-12-15T15:56:53.979Z,20.38
2022-12-15T15:57:53.976Z,20.38
2022-12-15T15:58:53.975Z,20.35
2022-12-15T15:59:53.988Z,20.35
2022-12-15T16:00:53.982Z,20.38
2022-12-15T16:01:54.052Z,20.37
2022-12-15T16:13:10.418Z,20.19
2022-12-15T16:14:10.368Z,20.19
2022-12-15T16:15:10.358Z,20.19
2022-12-15T16:16:10.399Z,20.15
2022-12-15T16:17:10.363Z,20.16
2022-12-15T16:18:10.334Z,20.16
2022-12-15T16:19:10.327Z,20.18
2022-12-15T16:20:10.357Z,20.15
2022-12-15T16:21:10.315Z,20.19
2022-12-15T16:22:10.370Z,20.05
2022-12-15T16:23:10.301Z,20.16
2022-12-15T16:24:10.293Z,20.16
2022-12-15T16:25:10.305Z,20.16
2022-12-15T16:26:10.290Z,20.16
2022-12-15T16:27:10.294Z,20.10
2022-12-15T16:28:10.287Z,20.18
2022-12-15T16:29:10.289Z,20.11
2022-12-15T16:30:10.272Z,20.11
2022-12-15T16:31:10.371Z,20.10
2022-12-15T16:32:10.263Z,20.04
2022-12-15T16:33:10.283Z,20.04
2022-12-15T16:34:10.247Z,20.07
2022-12-15T16:35:10.249Z,20.05
2022-12-15T16:36:10.251Z,20.20
2022-12-15T16:37:10.233Z,20.00
2022-12-15T16:38:10.271Z,20.04
2022-12-15T16:39:10.226Z,20.00
2022-12-15T16:40:10.223Z,20.05
2022-12-15T16:41:10.460Z,20.07
2022-12-15T16:42:10.216Z,20.02
2022-12-15T16:43:10.211Z,20.02
2022-12-15T16:44:10.190Z,20.00
2022-12-15T16:45:10.219Z,20.07
2022-12-15T16:46:10.227Z,20.01
2022-12-15T16:47:10.179Z,20.04
2022-12-15T16:48:10.235Z,20.04
2022-12-15T16:49:10.285Z,20.02
2022-12-15T16:50:10.176Z,20.05
2022-12-15T16:51:10.177Z,20.01
2022-12-15T16:52:10.172Z,20.01
2022-12-15T16:53:10.150Z,20.10
2022-12-15T16:54:10.162Z,20.08
2022-12-15T16:55:10.169Z,20.00
2022-12-15T16:56:10.152Z,20.02
2022-12-15T16:57:10.139Z,20.07
2022-12-15T16:58:10.135Z,20.04
2022-12-15T16:59:31.925Z,20.08
2022-12-15T17:00:10.119Z,20.01
2022-12-15T17:01:10.177Z,20.08
2022-12-15T17:02:10.238Z,20.05
2022-12-15T17:03:10.443Z,20.04
2022-12-15T17:04:10.158Z,20.00
2022-12-15T17:05:10.108Z,20.07
2022-12-15T17:06:10.123Z,19.98
2022-12-15T17:07:10.549Z,20.10
2022-12-15T17:08:10.117Z,19.98
2022-12-15T17:09:10.085Z,20.07
2022-12-15T17:10:10.080Z,20.01
2022-12-15T17:11:10.068Z,20.07
2022-12-15T17:12:10.065Z,20.07
2022-12-15T17:13:10.051Z,20.04
2022-12-15T17:14:10.068Z,20.04
2022-12-15T17:15:10.044Z,20.05
2022-12-15T17:16:10.082Z,20.04
2022-12-15T17:17:10.061Z,20.00
2022-12-15T17:18:10.032Z,20.05